Time;durP1;ratioP1;P1;durP2;ratioP2;P2;SDS_P1;SDS_P2;PMS_P1;PMS_P2;Temp;Humidity;BMP_temperature;BMP_pressure;BME280_temperature;BME280_humidity;BME280_pressure;Samples;Min_cycle;Max_cycle;Signal;HPM_P1;HPM_P2
2022/11/14 00:00:58;;;;;;;23.90;12.10;;;;;;;0.07;100.00;98543.48;107979;1266;58867;-70
2022/11/14 00:03:49;;;;;;;42.10;17.00;;;;;;;0.03;100.00;98541.11;107962;1269;70571;-70
2022/11/14 00:06:38;;;;;;;21.70;13.30;;;;;;;0.00;100.00;98542.36;107934;1266;69160;-70
2022/11/14 00:09:27;;;;;;;28.60;14.90;;;;;;;0.01;100.00;98544.94;107924;1259;68633;-71
2022/11/14 00:12:14;;;;;;;34.20;13.30;;;;;;;-0.01;100.00;98544.77;107867;1265;58923;-70
2022/11/14 00:15:03;;;;;;;19.90;12.20;;;;;;;-0.08;100.00;98544.50;107683;1266;58907;-71
2022/11/14 00:17:52;;;;;;;21.50;11.40;;;;;;;-0.14;100.00;98545.45;107732;1268;71192;-70
2022/11/14 00:20:39;;;;;;;23.00;12.80;;;;;;;-0.16;100.00;98546.16;107877;1268;69065;-69
2022/11/14 00:23:28;;;;;;;42.10;16.20;;;;;;;-0.14;100.00;98546.13;107735;1267;69751;-69
2022/11/14 00:26:16;;;;;;;35.10;17.60;;;;;;;-0.14;100.00;98545.46;107744;1268;58907;-71
2022/11/14 00:29:05;;;;;;;42.00;18.70;;;;;;;-0.14;100.00;98541.66;107662;1263;58950;-71
2022/11/14 00:31:54;;;;;;;29.10;17.70;;;;;;;-0.13;100.00;98540.48;107779;1264;70024;-70
2022/11/14 00:34:43;;;;;;;24.20;14.40;;;;;;;-0.10;100.00;98539.05;107807;1266;69090;-70
2022/11/14 00:37:31;;;;;;;40.30;18.00;;;;;;;-0.10;100.00;98532.88;107682;1266;69212;-70
2022/11/14 00:40:20;;;;;;;23.80;13.00;;;;;;;-0.10;100.00;98526.89;107803;1267;58968;-70
2022/11/14 00:43:10;;;;;;;38.50;16.70;;;;;;;-0.10;100.00;98531.00;107734;1266;58877;-70
2022/11/14 00:45:58;;;;;;;22.00;13.60;;;;;;;-0.10;100.00;98532.36;107728;1263;70230;-70
2022/11/14 00:48:47;;;;;;;24.90;15.50;;;;;;;-0.12;100.00;98534.62;107738;1269;68969;-70
2022/11/14 00:51:34;;;;;;;22.50;13.00;;;;;;;-0.13;100.00;98535.84;107728;1266;69474;-70
2022/11/14 00:54:23;;;;;;;48.50;16.90;;;;;;;-0.16;100.00;98535.54;107663;1270;58965;-70
2022/11/14 00:57:11;;;;;;;22.20;12.60;;;;;;;-0.20;100.00;98533.70;107709;1267;58944;-70
2022/11/14 01:00:00;;;;;;;49.70;16.40;;;;;;;-0.22;100.00;98528.58;107704;1265;70475;-70
2022/11/14 01:02:49;;;;;;;175.40;29.40;;;;;;;-0.25;100.00;98521.77;107748;1265;68430;-70
2022/11/14 01:05:49;;;;;;;72.10;18.50;;;;;;;-0.33;100.00;98517.90;107662;1263;68384;-70
2022/11/14 01:08:38;;;;;;;23.20;13.30;;;;;;;-0.37;100.00;98511.29;107682;1266;58974;-70
2022/11/14 01:11:28;;;;;;;110.70;22.90;;;;;;;-0.40;100.00;98507.21;107742;1269;58924;-71
2022/11/14 01:14:15;;;;;;;105.10;21.70;;;;;;;-0.45;100.00;98509.31;107878;1263;70613;-71
2022/11/14 01:17:03;;;;;;;30.10;12.90;;;;;;;-0.51;100.00;98508.18;107818;1268;68178;-71
2022/11/14 01:19:53;;;;;;;32.50;14.00;;;;;;;-0.52;100.00;98505.11;107799;1269;69319;-71
2022/11/14 01:22:42;;;;;;;37.90;15.60;;;;;;;-0.55;100.00;98499.66;107815;1263;58890;-71
2022/11/14 01:25:33;;;;;;;68.70;19.20;;;;;;;-0.60;100.00;98498.70;107862;1265;58900;-71
2022/11/14 01:28:21;;;;;;;;;;;;;;;-0.63;100.00;98499.08;107650;1268;70224;-70
2022/11/14 01:31:15;;;;;;;28.20;14.70;;;;;;;-0.64;100.00;98499.94;107709;1265;69829;-70
2022/11/14 01:34:03;;;;;;;52.40;16.60;;;;;;;-0.63;100.00;98498.72;107735;1269;68895;-71
2022/11/14 01:36:52;;;;;;;22.30;13.70;;;;;;;-0.64;100.00;98498.40;107705;1269;58906;-71
2022/11/14 01:39:40;;;;;;;19.70;13.00;;;;;;;-0.61;100.00;98500.75;107817;1265;58990;-72
2022/11/14 01:42:28;;;;;;;39.60;14.90;;;;;;;-0.59;100.00;98500.05;107805;1269;69769;-71
2022/11/14 01:45:56;;;;;;;37.00;15.40;;;;;;;-0.59;100.00;98495.78;107899;1269;68458;-71
2022/11/14 01:48:44;;;;;;;38.60;16.90;;;;;;;-0.62;100.00;98490.48;107788;1266;68480;-71
2022/11/14 01:51:37;;;;;;;80.20;20.40;;;;;;;-0.64;100.00;98489.31;107894;1269;58997;-71
2022/11/14 01:54:36;;;;;;;40.90;16.90;;;;;;;-0.67;100.00;98490.38;107944;1269;58921;-70
2022/11/14 01:57:37;;;;;;;36.10;17.30;;;;;;;-0.66;100.00;98486.42;107857;1265;70994;-71
2022/11/14 02:00:25;;;;;;;36.40;14.50;;;;;;;-0.64;100.00;98489.84;107818;1263;69175;-70
2022/11/14 02:03:14;;;;;;;40.80;16.60;;;;;;;-0.68;100.00;98490.56;107865;1268;69505;-69
2022/11/14 02:06:05;;;;;;;26.40;14.50;;;;;;;-0.69;100.00;98483.55;107675;1269;58886;-69
2022/11/14 02:08:57;;;;;;;23.10;12.00;;;;;;;-0.66;100.00;98481.63;107673;1268;59322;-70
2022/11/14 02:11:47;;;;;;;27.60;14.00;;;;;;;-0.67;100.00;98485.94;107741;1269;71235;-70
2022/11/14 02:14:37;;;;;;;28.20;14.00;;;;;;;-0.67;100.00;98486.96;107697;1268;69758;-69
2022/11/14 02:17:28;;;;;;;23.30;13.40;;;;;;;-0.64;100.00;98486.58;107689;1268;69336;-70
2022/11/14 02:20:18;;;;;;;;;;;;;;;-0.62;100.00;98490.31;107692;1263;58965;-71
2022/11/14 02:23:06;;;;;;;24.10;13.10;;;;;;;-0.62;100.00;98490.66;107757;1269;58826;-69
2022/11/14 02:25:55;;;;;;;22.50;11.90;;;;;;;-0.72;100.00;98486.50;107743;1270;70631;-70
2022/11/14 02:28:43;;;;;;;28.30;12.90;;;;;;;-0.76;100.00;98486.87;107639;1268;69504;-70
2022/11/14 02:31:33;;;;;;;28.10;12.30;;;;;;;-0.73;100.00;98485.66;107761;1264;68470;-70
2022/11/14 02:34:22;;;;;;;71.00;16.50;;;;;;;-0.72;100.00;98487.52;107651;1265;58885;-70
2022/11/14 02:37:11;;;;;;;27.80;14.00;;;;;;;-0.73;100.00;98490.95;107700;1268;58903;-69
2022/11/14 02:39:59;;;;;;;24.90;11.90;;;;;;;-0.69;100.00;98487.83;107727;1269;70851;-70
2022/11/14 02:42:49;;;;;;;45.60;13.70;;;;;;;-0.70;100.00;98478.77;107663;1270;69634;-69
2022/11/14 02:45:38;;;;;;;33.80;13.00;;;;;;;-0.72;100.00;98474.86;107670;1270;69681;-70
2022/11/14 02:48:28;;;;;;;27.20;12.00;;;;;;;-0.78;100.00;98475.42;107630;1269;58981;-70
2022/11/14 02:51:17;;;;;;;31.90;11.90;;;;;;;-0.83;100.00;98478.91;107761;1269;58884;-70
2022/11/14 02:54:06;;;;;;;29.70;11.60;;;;;;;-0.86;100.00;98486.98;107870;1269;70598;-70
2022/11/14 02:56:55;;;;;;;18.50;10.50;;;;;;;-0.89;100.00;98485.46;107619;1269;69215;-70
2022/11/14 02:59:43;;;;;;;14.90;8.60;;;;;;;-0.89;100.00;98488.03;107818;1269;69554;-70
2022/11/14 03:02:33;;;;;;;26.90;12.50;;;;;;;-0.88;100.00;98489.73;107905;1269;58946;-70
2022/11/14 03:05:22;;;;;;;30.00;12.80;;;;;;;-0.87;100.00;98486.31;107738;1267;58903;-70
2022/11/14 03:08:11;;;;;;;26.90;11.60;;;;;;;-0.86;100.00;98484.09;107726;1269;70568;-70
2022/11/14 03:11:04;;;;;;;21.00;11.10;;;;;;;-0.89;100.00;98485.47;107728;1266;69414;-70
2022/11/14 03:13:53;;;;;;;31.80;13.10;;;;;;;-0.94;100.00;98484.15;107665;1269;69596;-70
2022/11/14 03:16:43;;;;;;;31.20;14.00;;;;;;;-0.95;100.00;98483.83;107738;1268;58962;-70
2022/11/14 03:19:34;;;;;;;36.00;15.10;;;;;;;-0.94;100.00;98483.30;107713;1267;58917;-70
2022/11/14 03:22:23;;;;;;;46.60;15.20;;;;;;;-0.92;100.00;98483.80;107742;1263;70472;-70
2022/11/14 03:25:13;;;;;;;;;;;;;;;-0.90;100.00;98487.87;107708;1266;69261;-70
2022/11/14 03:28:02;;;;;;;41.10;14.50;;;;;;;-0.92;100.00;98486.36;107748;1268;69205;-70
2022/11/14 03:30:52;;;;;;;30.50;13.00;;;;;;;-0.91;100.00;98485.66;107691;1270;58888;-70
2022/11/14 03:33:41;;;;;;;24.40;13.20;;;;;;;-0.90;100.00;98484.80;107718;1265;58894;-68
2022/11/14 03:36:30;;;;;;;35.40;12.70;;;;;;;-0.87;100.00;98487.17;107748;1266;70538;-68
2022/11/14 03:39:18;;;;;;;35.00;13.00;;;;;;;-0.87;100.00;98489.91;107733;1266;69226;-68
2022/11/14 03:42:07;;;;;;;36.10;10.20;;;;;;;-0.90;100.00;98489.92;107769;1270;69280;-69
2022/11/14 03:44:55;;;;;;;28.40;11.20;;;;;;;-0.93;100.00;98488.23;107645;1269;59281;-69
2022/11/14 03:47:45;;;;;;;30.50;11.40;;;;;;;-0.97;100.00;98485.55;107714;1268;58907;-69
2022/11/14 03:50:33;;;;;;;29.00;12.30;;;;;;;-1.02;100.00;98485.24;107723;1268;70973;-69
2022/11/14 03:53:22;;;;;;;30.10;12.70;;;;;;;-1.07;100.00;98486.67;107700;1270;69657;-69
2022/11/14 03:56:10;;;;;;;28.60;12.20;;;;;;;-1.08;100.00;98484.80;107686;1270;69284;-69
2022/11/14 03:58:59;;;;;;;31.90;12.20;;;;;;;-1.10;100.00;98478.83;107673;1269;58898;-69
2022/11/14 04:01:48;;;;;;;26.80;11.20;;;;;;;-1.12;100.00;98481.92;107727;1268;58898;-69
2022/11/14 04:04:38;;;;;;;30.30;10.70;;;;;;;-1.16;100.00;98480.23;107707;1269;70615;-69
2022/11/14 04:07:27;;;;;;;17.50;8.90;;;;;;;-1.19;100.00;98477.71;107626;1268;69724;-69
2022/11/14 04:10:17;;;;;;;17.90;9.90;;;;;;;-1.22;100.00;98477.05;107636;1269;69723;-69
2022/11/14 04:13:05;;;;;;;16.30;9.80;;;;;;;-1.25;100.00;98472.96;107736;1271;58967;-69
2022/11/14 04:15:57;;;;;;;20.90;10.30;;;;;;;-1.25;100.00;98472.96;107756;1270;58915;-69
2022/11/14 04:18:46;;;;;;;31.60;11.40;;;;;;;-1.25;100.00;98469.54;107717;1268;70864;-69
2022/11/14 04:21:34;;;;;;;30.80;11.30;;;;;;;-1.23;100.00;98469.36;107736;1269;69931;-69
2022/11/14 04:24:22;;;;;;;20.30;10.10;;;;;;;-1.24;100.00;98471.27;107745;1269;69400;-69
2022/11/14 04:27:10;;;;;;;17.60;8.70;;;;;;;-1.24;100.00;98472.29;107601;1264;58888;-69
2022/11/14 04:29:58;;;;;;;24.90;11.50;;;;;;;-1.25;100.00;98471.08;107701;1269;58894;-69
2022/11/14 04:32:47;;;;;;;20.20;9.30;;;;;;;-1.28;100.00;98473.34;107706;1268;70552;-69
2022/11/14 04:35:35;;;;;;;48.10;11.80;;;;;;;-1.29;100.00;98477.97;107715;1269;68725;-69
2022/11/14 04:38:23;;;;;;;18.60;9.30;;;;;;;-1.33;100.00;98479.88;107709;1269;69858;-69
2022/11/14 04:41:10;;;;;;;56.10;14.30;;;;;;;-1.38;100.00;98475.64;107870;1269;58955;-69
2022/11/14 04:43:59;;;;;;;38.90;16.70;;;;;;;-1.42;100.00;98473.63;107752;1268;58906;-69
2022/11/14 04:46:48;;;;;;;20.50;10.30;;;;;;;-1.43;100.00;98466.95;107748;1269;71005;-69
2022/11/14 04:49:37;;;;;;;26.30;10.30;;;;;;;-1.43;100.00;98463.89;107783;1270;69270;-69
2022/11/14 04:52:26;;;;;;;26.10;10.10;;;;;;;-1.45;100.00;98462.88;107696;1270;70226;-69
2022/11/14 04:55:14;;;;;;;16.50;8.60;;;;;;;-1.46;100.00;98462.39;107709;1269;58960;-69
2022/11/14 04:58:02;;;;;;;21.30;8.30;;;;;;;-1.47;100.00;98460.85;107690;1268;59309;-69
2022/11/14 05:00:51;;;;;;;13.70;8.40;;;;;;;-1.48;100.00;98460.51;107673;1269;70617;-69
2022/11/14 05:03:38;;;;;;;16.80;9.90;;;;;;;-1.51;100.00;98466.19;107708;1268;69416;-69
2022/11/14 05:06:27;;;;;;;15.20;9.00;;;;;;;-1.51;100.00;98466.52;107746;1269;69233;-69
2022/11/14 05:09:14;;;;;;;46.60;25.90;;;;;;;-1.51;100.00;98467.54;107707;1269;58944;-69
2022/11/14 05:12:03;;;;;;;107.70;50.20;;;;;;;-1.51;100.00;98465.67;107659;1268;59367;-70
2022/11/14 05:14:51;;;;;;;71.80;35.40;;;;;;;-1.53;100.00;98467.89;107616;1263;71304;-69
2022/11/14 05:17:39;;;;;;;43.50;24.40;;;;;;;-1.53;100.00;98467.55;107716;1269;69426;-69
2022/11/14 05:20:26;;;;;;;27.00;15.20;;;;;;;-1.52;100.00;98472.18;107695;1269;68716;-69
2022/11/14 05:23:20;;;;;;;32.20;16.20;;;;;;;-1.50;100.00;98475.41;107782;1265;58930;-70
2022/11/14 05:26:10;;;;;;;26.60;13.30;;;;;;;-1.51;100.00;98477.47;107719;1270;58902;-71
2022/11/14 05:28:58;;;;;;;17.80;9.90;;;;;;;-1.50;100.00;98476.27;107856;1269;70593;-69
2022/11/14 05:31:45;;;;;;;49.30;13.80;;;;;;;-1.54;100.00;98473.20;107663;1267;69522;-71
2022/11/14 05:34:33;;;;;;;26.00;12.20;;;;;;;-1.57;100.00;98476.31;107648;1268;68660;-71
2022/11/14 05:37:20;;;;;;;16.40;10.30;;;;;;;-1.55;100.00;98475.10;107598;1268;58900;-69
2022/11/14 05:40:09;;;;;;;41.40;13.20;;;;;;;-1.52;100.00;98474.41;107611;1269;58978;-69
2022/11/14 05:42:58;;;;;;;42.70;13.60;;;;;;;-1.51;100.00;98475.59;107743;1269;70880;-69
2022/11/14 05:45:46;;;;;;;26.60;13.90;;;;;;;-1.46;100.00;98479.13;107628;1265;68450;-70
2022/11/14 05:48:34;;;;;;;20.80;12.50;;;;;;;-1.39;100.00;98478.05;107716;1269;69960;-70
2022/11/14 05:51:21;;;;;;;26.00;13.10;;;;;;;-1.36;100.00;98477.16;107656;1264;59029;-70
2022/11/14 05:54:09;;;;;;;22.20;15.20;;;;;;;-1.30;100.00;98480.20;107713;1269;58878;-70
2022/11/14 05:56:57;;;;;;;27.20;16.60;;;;;;;-1.24;100.00;98486.14;107728;1269;70058;-70
2022/11/14 05:59:44;;;;;;;31.70;15.40;;;;;;;-1.21;100.00;98487.81;107759;1269;69001;-70
2022/11/14 06:02:32;;;;;;;34.60;16.00;;;;;;;-1.16;100.00;98488.96;107595;1265;68748;-70
2022/11/14 06:05:21;;;;;;;20.20;11.90;;;;;;;-1.13;100.00;98490.48;107725;1269;58957;-70
2022/11/14 06:08:09;;;;;;;18.20;10.90;;;;;;;-1.08;100.00;98487.88;107772;1269;58930;-69
2022/11/14 06:11:19;;;;;;;25.30;11.50;;;;;;;-1.04;100.00;98492.80;107654;1268;71192;-69
2022/11/14 06:14:06;;;;;;;23.50;12.20;;;;;;;-1.00;100.00;98497.05;107613;1269;68659;-69
2022/11/14 06:16:57;;;;;;;21.90;12.80;;;;;;;-1.00;100.00;98495.16;107688;1270;69277;-69
2022/11/14 06:19:44;;;;;;;18.40;10.10;;;;;;;-0.99;100.00;98492.58;107754;1269;58927;-69
2022/11/14 06:22:32;;;;;;;40.70;17.50;;;;;;;-0.96;100.00;98492.23;107737;1269;59027;-69
2022/11/14 06:25:20;;;;;;;24.60;12.80;;;;;;;-0.92;100.00;98492.35;107767;1269;70067;-69
2022/11/14 06:28:07;;;;;;;45.90;20.30;;;;;;;-0.88;100.00;98503.94;107734;1268;69816;-69
2022/11/14 06:30:59;;;;;;;23.10;13.60;;;;;;;-0.84;100.00;98504.06;107780;1268;69209;-68
2022/11/14 06:33:47;;;;;;;39.80;18.90;;;;;;;-0.85;100.00;98503.73;107707;1267;58928;-69
2022/11/14 06:36:35;;;;;;;42.70;23.20;;;;;;;-0.88;100.00;98503.09;107826;1269;58912;-69
2022/11/14 06:39:23;;;;;;;40.90;22.40;;;;;;;-0.89;100.00;98498.65;107640;1269;71540;-70
2022/11/14 06:42:14;;;;;;;36.30;19.20;;;;;;;-0.84;100.00;98498.27;107622;1268;68439;-73
2022/11/14 06:45:01;;;;;;;25.80;16.20;;;;;;;-0.80;100.00;98501.98;107695;1273;69882;-69
2022/11/14 06:47:48;;;;;;;47.30;18.40;;;;;;;-0.71;100.00;98498.13;107706;1269;58958;-69
2022/11/14 06:50:36;;;;;;;30.80;16.70;;;;;;;-0.63;100.00;98496.15;107731;1266;58870;-70
2022/11/14 06:53:26;;;;;;;37.60;18.30;;;;;;;-0.54;100.00;98501.70;107764;1268;70066;-69
2022/11/14 06:56:16;;;;;;;31.80;13.60;;;;;;;-0.44;100.00;98501.95;107656;1270;69752;-70
2022/11/14 06:59:04;;;;;;;63.50;21.00;;;;;;;-0.39;100.00;98501.20;107726;1270;69455;-70
2022/11/14 07:01:52;;;;;;;33.10;16.60;;;;;;;-0.38;100.00;98502.04;107641;1270;58907;-70
2022/11/14 07:04:39;;;;;;;35.60;17.70;;;;;;;-0.37;100.00;98500.99;107732;1269;58938;-71
2022/11/14 07:07:27;;;;;;;25.30;14.70;;;;;;;-0.31;100.00;98497.16;107721;1268;70591;-71
2022/11/14 07:10:14;;;;;;;49.70;18.50;;;;;;;-0.24;100.00;98491.95;107808;1271;69163;-70
2022/11/14 07:13:02;;;;;;;51.30;18.70;;;;;;;-0.17;100.00;98489.80;107370;1268;534785;-70
2022/11/14 07:15:53;;;;;;;44.80;15.80;;;;;;;-0.17;100.00;98485.86;107801;1268;58965;-70
2022/11/14 07:18:41;;;;;;;27.70;15.20;;;;;;;-0.21;100.00;98487.96;107738;1270;58915;-70
2022/11/14 07:21:30;;;;;;;35.60;16.80;;;;;;;-0.15;100.00;98481.37;107793;1269;70071;-70
2022/11/14 07:24:17;;;;;;;43.40;18.80;;;;;;;-0.10;100.00;98481.66;107720;1270;70085;-70
2022/11/14 07:27:07;;;;;;;30.30;16.40;;;;;;;-0.02;100.00;98479.15;107741;1268;69426;-69
2022/11/14 07:29:55;;;;;;;41.40;17.50;;;;;;;0.05;100.00;98485.71;107737;1264;58967;-70
2022/11/14 07:32:42;;;;;;;35.50;14.50;;;;;;;0.12;100.00;98486.16;107739;1270;58922;-69
2022/11/14 07:35:30;;;;;;;36.90;15.30;;;;;;;0.24;100.00;98484.79;107886;1270;71209;-69
2022/11/14 07:38:18;;;;;;;27.00;15.70;;;;;;;0.28;100.00;98488.33;107718;1269;68157;-69
2022/11/14 07:41:12;;;;;;;38.30;22.80;;;;;;;0.37;100.00;98487.32;107650;1270;69459;-69
2022/11/14 07:43:59;;;;;;;42.30;19.10;;;;;;;0.50;100.00;98480.79;107684;1269;58900;-69
2022/11/14 07:46:48;;;;;;;28.30;17.30;;;;;;;0.59;100.00;98479.11;107747;1269;58916;-69
2022/11/14 07:49:36;;;;;;;44.40;21.00;;;;;;;0.66;100.00;98474.54;107690;1269;70895;-70
2022/11/14 07:52:23;;;;;;;28.60;18.10;;;;;;;0.70;100.00;98470.69;107655;1270;68458;-69
2022/11/14 07:55:11;;;;;;;27.90;16.80;;;;;;;0.77;100.00;98468.69;107583;1270;69938;-69
2022/11/14 07:57:58;;;;;;;31.80;17.20;;;;;;;0.75;100.00;98467.70;107647;1270;58960;-69
2022/11/14 08:00:46;;;;;;;55.20;19.30;;;;;;;0.86;100.00;98469.40;107667;1270;58895;-70
2022/11/14 08:03:33;;;;;;;17.70;11.70;;;;;;;0.99;100.00;98462.98;107682;1269;71245;-69
2022/11/14 08:06:25;;;;;;;21.00;14.10;;;;;;;1.08;100.00;98461.47;107689;1270;69235;-69
2022/11/14 08:09:13;;;;;;;17.00;10.70;;;;;;;1.14;100.00;98456.21;107626;1270;70071;-69
2022/11/14 08:12:00;;;;;;;21.10;12.40;;;;;;;1.31;100.00;98453.48;107482;1270;58964;-69
2022/11/14 08:14:48;;;;;;;24.90;16.10;;;;;;;1.37;100.00;98456.46;107596;1270;58969;-69
2022/11/14 08:17:36;;;;;;;22.30;13.50;;;;;;;1.29;99.89;98456.26;107610;1270;69438;-69
2022/11/14 08:20:25;;;;;;;31.40;17.20;;;;;;;1.31;99.65;98456.05;107603;1270;68662;-69
2022/11/14 08:23:13;;;;;;;27.50;13.70;;;;;;;1.34;99.99;98455.48;107628;1270;69440;-69
2022/11/14 08:26:01;;;;;;;21.40;14.30;;;;;;;1.39;100.00;98453.33;107620;1274;58927;-69
2022/11/14 08:28:53;;;;;;;20.00;13.20;;;;;;;1.40;99.75;98448.14;107679;1269;58879;-69
2022/11/14 08:31:40;;;;;;;29.50;16.30;;;;;;;1.52;99.61;98448.61;107626;1270;71234;-69
2022/11/14 08:34:28;;;;;;;24.20;15.20;;;;;;;1.56;100.00;98450.23;107703;1274;67548;-70
2022/11/14 08:37:15;;;;;;;24.90;15.90;;;;;;;1.75;100.00;98451.05;107628;1271;70292;-69
2022/11/14 08:40:03;;;;;;;22.50;16.30;;;;;;;1.99;99.87;98447.98;107679;1264;58976;-69
2022/11/14 08:42:51;;;;;;;17.30;12.00;;;;;;;2.11;97.05;98439.79;107637;1270;58912;-69
2022/11/14 08:45:38;;;;;;;19.00;13.20;;;;;;;2.30;97.32;98439.34;107797;1270;70570;-70
2022/11/14 08:48:26;;;;;;;18.30;12.00;;;;;;;2.43;96.34;98436.11;107803;1268;69192;-70
2022/11/14 08:51:13;;;;;;;16.90;12.10;;;;;;;2.59;96.76;98434.19;107798;1273;69400;-70
2022/11/14 08:54:01;;;;;;;16.80;12.00;;;;;;;2.74;97.75;98429.34;107794;1270;58967;-70
2022/11/14 08:56:49;;;;;;;21.80;13.30;;;;;;;2.84;96.29;98430.13;107757;1264;58912;-70
2022/11/14 08:59:36;;;;;;;18.40;13.50;;;;;;;2.82;94.21;98430.16;107755;1264;69765;-70
2022/11/14 09:02:23;;;;;;;18.10;13.20;;;;;;;3.02;95.80;98421.71;107778;1270;69066;-70
2022/11/14 09:05:10;;;;;;;18.70;13.70;;;;;;;3.08;96.14;98421.58;107740;1273;68582;-70
2022/11/14 09:07:58;;;;;;;18.40;12.10;;;;;;;3.12;95.28;98420.41;107760;1270;58903;-70
2022/11/14 09:10:45;;;;;;;27.10;15.00;;;;;;;3.21;94.99;98418.30;107823;1270;58903;-70
2022/11/14 09:13:34;;;;;;;21.80;14.50;;;;;;;3.30;96.09;98416.83;107766;1270;70421;-70
2022/11/14 09:16:21;;;;;;;44.00;18.80;;;;;;;3.31;93.83;98413.19;107744;1266;69180;-70
2022/11/14 09:19:08;;;;;;;27.50;16.10;;;;;;;3.23;93.56;98403.09;107710;1266;68507;-70
2022/11/14 09:21:55;;;;;;;21.30;15.20;;;;;;;3.17;94.36;98402.55;107756;1270;58969;-71
2022/11/14 09:24:46;;;;;;;23.90;15.70;;;;;;;3.27;94.40;98395.02;107578;1270;58904;-71
2022/11/14 09:27:33;;;;;;;16.90;11.30;;;;;;;3.48;93.73;98395.46;107773;1270;70554;-71
2022/11/14 09:30:24;;;;;;;16.70;10.50;;;;;;;3.63;93.07;98395.75;107802;1266;68208;-71
2022/11/14 09:33:11;;;;;;;;;;;;;;;3.80;91.94;98388.69;107717;1270;69253;-71
2022/11/14 09:36:00;;;;;;;13.90;10.90;;;;;;;3.98;92.45;98386.56;107732;1269;59004;-71
2022/11/14 09:38:49;;;;;;;18.40;13.70;;;;;;;3.95;90.70;98388.55;107757;1270;58913;-71
2022/11/14 09:42:18;;;;;;;18.40;12.00;;;;;;;4.19;90.38;98385.42;107774;1270;70654;-70
2022/11/14 09:45:15;;;;;;;24.00;14.10;;;;;;;4.46;90.05;98385.39;107769;1269;69041;-71
2022/11/14 09:48:12;;;;;;;18.90;13.30;;;;;;;4.41;89.37;98382.30;107762;1269;69234;-71
2022/11/14 09:51:08;;;;;;;19.10;11.10;;;;;;;4.59;90.45;98373.57;107757;1270;58968;-70
2022/11/14 09:54:09;;;;;;;12.40;9.80;;;;;;;4.78;91.14;98371.90;107747;1268;58973;-70
2022/11/14 09:56:56;;;;;;;17.70;11.40;;;;;;;4.90;89.30;98368.72;107801;1270;70782;-71
2022/11/14 09:59:43;;;;;;;20.00;13.10;;;;;;;4.86;88.52;98362.83;107757;1269;69011;-70
2022/11/14 10:02:40;;;;;;;16.80;11.80;;;;;;;4.84;88.97;98353.56;107780;1265;69266;-70
2022/11/14 10:05:39;;;;;;;15.70;11.30;;;;;;;4.97;89.57;98351.52;107747;1270;58967;-70
2022/11/14 10:08:36;;;;;;;;;;;;;;;5.14;89.60;98348.52;107805;1267;58983;-70
2022/11/14 10:11:42;;;;;;;24.80;14.30;;;;;;;4.71;88.76;98342.44;107828;1262;68896;-70
2022/11/14 10:14:39;;;;;;;15.20;10.80;;;;;;;4.83;89.66;98338.40;107794;1266;69174;-70
2022/11/14 10:17:45;;;;;;;16.70;11.40;;;;;;;4.99;90.60;98336.28;107797;1266;69938;-70
2022/11/14 10:20:43;;;;;;;14.20;10.40;;;;;;;5.49;89.07;98339.29;107742;1272;59356;-70
2022/11/14 10:23:48;;;;;;;12.80;9.20;;;;;;;5.96;86.18;98333.54;107772;1270;58922;-70
2022/11/14 10:27:01;;;;;;;15.70;11.40;;;;;;;6.28;83.81;98326.37;107746;1269;70583;-70
2022/11/14 10:29:58;;;;;;;17.60;11.60;;;;;;;6.43;81.93;98322.79;107967;1267;69049;-71
2022/11/14 10:33:07;;;;;;;12.00;10.10;;;;;;;6.54;82.09;98319.94;107878;1268;69087;-70
2022/11/14 10:36:04;;;;;;;16.70;13.50;;;;;;;7.13;82.19;98319.41;107765;1270;58923;-70
2022/11/14 10:39:10;;;;;;;17.40;12.80;;;;;;;7.96;78.61;98308.66;107763;1267;58963;-70
2022/11/14 10:42:03;;;;;;;14.40;11.70;;;;;;;8.73;74.68;98305.39;107741;1268;70555;-70
2022/11/14 10:45:26;;;;;;;16.30;11.70;;;;;;;9.97;70.64;98298.06;107765;1270;69326;-70
2022/11/14 10:48:58;;;;;;;15.30;12.20;;;;;;;11.06;64.01;98292.04;107666;1270;69306;-70
2022/11/14 10:51:52;;;;;;;13.70;11.70;;;;;;;11.87;60.26;98291.17;107021;1277;59026;-70
2022/11/14 10:54:58;;;;;;;13.90;11.40;;;;;;;12.58;57.89;98287.56;107148;1277;59040;-70
2022/11/14 10:57:46;;;;;;;12.80;10.80;;;;;;;12.58;56.24;98282.02;107768;1269;70687;-68
2022/11/14 11:00:33;;;;;;;15.50;11.90;;;;;;;12.25;57.55;98281.07;107803;1270;69802;-69
2022/11/14 11:03:40;;;;;;;15.40;12.40;;;;;;;12.14;57.27;98278.02;107664;1266;69288;-69
2022/11/14 11:06:28;;;;;;;13.30;11.90;;;;;;;12.88;56.08;98278.09;107704;1270;58953;-69
2022/11/14 11:12:51;;;;;;;12.10;10.50;;;;;;;12.25;56.54;98270.33;107670;1269;71351;-69
2022/11/14 11:15:40;;;;;;;15.70;12.20;;;;;;;12.70;55.97;98265.27;107752;1267;69176;-70
2022/11/14 11:18:33;;;;;;;12.60;11.00;;;;;;;13.36;55.12;98261.27;107632;1270;69739;-70
2022/11/14 11:21:22;;;;;;;13.20;11.00;;;;;;;14.23;53.56;98255.48;107631;1266;58951;-70
2022/11/14 11:24:10;;;;;;;14.40;12.10;;;;;;;14.87;50.66;98258.75;107723;1270;58900;-70
2022/11/14 11:27:21;;;;;;;12.80;11.10;;;;;;;15.13;49.64;98257.94;107722;1269;70478;-70
2022/11/14 11:30:14;;;;;;;14.00;12.40;;;;;;;14.58;49.11;98253.55;107790;1267;69252;-69
2022/11/14 11:33:15;;;;;;;19.40;16.20;;;;;;;15.10;48.63;98253.81;107698;1270;68675;-70
2022/11/14 11:36:23;;;;;;;20.60;17.80;;;;;;;15.85;48.40;98244.75;107660;1271;58906;-70
2022/11/14 11:39:22;;;;;;;18.50;16.20;;;;;;;16.08;46.46;98242.09;107727;1266;58905;-70
2022/11/14 11:42:18;;;;;;;24.00;20.70;;;;;;;15.98;47.23;98240.31;107783;1269;71197;-70
2022/11/14 11:45:16;;;;;;;25.30;21.50;;;;;;;16.08;46.24;98239.81;107661;1270;69827;-70
2022/11/14 11:48:19;;;;;;;28.90;23.70;;;;;;;16.14;46.36;98233.91;107780;1267;69291;-70
2022/11/14 11:51:16;;;;;;;26.80;22.00;;;;;;;15.86;46.54;98225.80;107599;1269;58972;-70
2022/11/14 11:54:28;;;;;;;29.20;23.80;;;;;;;15.73;46.51;98223.36;107679;1268;58931;-70
2022/11/14 11:57:18;;;;;;;30.10;24.00;;;;;;;15.25;47.28;98225.16;107819;1268;70611;-69
2022/11/14 12:00:20;;;;;;;28.90;23.90;;;;;;;14.47;49.28;98226.50;107808;1265;68684;-70
2022/11/14 12:03:14;;;;;;;27.60;23.40;;;;;;;14.46;49.94;98224.67;107655;1271;68784;-70
2022/11/14 12:06:23;;;;;;;28.10;23.80;;;;;;;15.33;48.49;98221.94;107760;1269;58883;-70
2022/11/14 12:09:17;;;;;;;32.60;25.10;;;;;;;15.65;46.55;98219.22;107631;1266;58900;-70
2022/11/14 12:12:14;;;;;;;29.80;25.20;;;;;;;15.52;46.82;98216.61;107711;1270;69143;-70
2022/11/14 12:15:31;;;;;;;30.80;25.10;;;;;;;15.30;47.24;98212.71;107719;1270;70003;-69
2022/11/14 12:19:01;;;;;;;28.10;23.00;;;;;;;15.25;47.51;98212.39;107675;1270;69608;-70
2022/11/14 12:21:55;;;;;;;;;;;;;;;15.08;48.09;98212.37;107478;1270;58964;-69
2022/11/14 12:25:14;;;;;;;29.00;23.60;;;;;;;14.70;48.77;98214.08;107723;1269;58898;-70
2022/11/14 12:28:08;;;;;;;29.20;23.90;;;;;;;14.82;48.32;98210.90;107684;1269;71363;-70
2022/11/14 12:31:00;;;;;;;29.00;23.40;;;;;;;15.04;47.88;98207.22;107710;1270;68343;-70
2022/11/14 12:33:58;;;;;;;31.40;24.80;;;;;;;14.59;48.84;98206.09;107786;1270;69142;-70
2022/11/14 12:36:45;;;;;;;29.90;22.40;;;;;;;14.59;48.09;98205.83;107837;1269;58974;-71
2022/11/14 12:39:33;;;;;;;30.60;24.30;;;;;;;14.19;49.69;98200.20;107831;1270;58905;-70
2022/11/14 12:42:21;;;;;;;34.10;25.40;;;;;;;14.14;49.23;98194.46;107835;1264;70628;-71
2022/11/14 12:45:47;;;;;;;25.90;20.00;;;;;;;13.56;50.91;98190.15;107799;1270;69633;-70
2022/11/14 12:48:38;;;;;;;32.80;26.70;;;;;;;13.40;51.59;98187.92;107314;1277;69816;-71
2022/11/14 12:51:26;;;;;;;32.30;25.10;;;;;;;13.54;51.12;98184.01;107142;1276;59102;-70
2022/11/14 12:54:46;;;;;;;31.40;25.60;;;;;;;13.59;50.48;98178.89;107773;1270;58898;-70
2022/11/14 12:58:05;;;;;;;32.40;24.30;;;;;;;12.87;52.46;98176.31;107786;1268;71226;-70
2022/11/14 13:00:54;;;;;;;33.80;26.50;;;;;;;12.58;53.15;98175.54;107713;1269;69181;-69
2022/11/14 13:03:53;;;;;;;33.90;25.20;;;;;;;12.30;54.03;98173.95;107608;1268;68616;-69